Palestine, TX

9:25 PM CDT on August 04, 2015 (GMT -0500)
North Palestine | | Change Station
CLOSE
Current Station
Personal Weather Station
Location: Palestine, TX
Elevation: 581 ft
Nearby Weather Stations

Elev 581 ft 31.84 °N, 95.65 °W | Updated 2 seconds ago

Partly Cloudy
Partly Cloudy
84.1 °F
Feels Like 90 °F
N
0.0
Wind Variable Wind from North
Gusts 0.0 mph

Today
High -- | Low -- °F
--% Chance of Precip.
Yesterday
High -- | Low -- °F
Precip. -- in
6:40 AM 8:16 PM
Waning Gibbous, 72% visible
Pressure 29.92 in
Visibility 10.0 miles
Clouds Mostly Cloudy 6500 ft
Mostly Cloudy 7500 ft
Heat Index 90 °F
Dew Point 72 °F
Humidity 68%
Rainfall 0.00 in
Snow Depth Not available.
UV 0 out of 12
Pollen 6.50 out of 12
Air Quality Not available.
Flu Activity Not available.
METAR KPSN 050215Z AUTO 13003KT 10SM BKN065 BKN075 31/21 A2992 RMK AO2 T03100217

More Conditions Fewer Conditions

Pressure 29.92 in
Visibility 10.0 miles
Clouds Mostly Cloudy 6500 ft
Mostly Cloudy 7500 ft
Heat Index 90 °F
Dew Point 72 °F
Humidity 68%
Rainfall 0.00 in
Snow Depth Not available.
UV 0 out of 12
Pollen 6.50 out of 12
Air Quality Not available.
Flu Activity Not available.
METAR KPSN 050215Z AUTO 13003KT 10SM BKN065 BKN075 31/21 A2992 RMK AO2 T03100217

More Conditions Fewer Conditions

10-Day Weather Forecast

×

Almanac

Astronomy

Aug. 04, 2015 Rise Set
Actual Time
Civil Twilight
Nautical Twilight
Astronomical Twilight
Moon
Length of Visible Light
Length of Day
Tomorrow will be .
, % of the Moon is Illuminated

Today's Extremes

State Highs State Lows

Community

WunderPhotos

Upload Photos

1,844,084 photos uploaded!

WunderBlogs® & News

Nearby

Air Quality

  Air Quality AQ Index Pollutant
Not available.

Snow Depth

Station Depth Elevation

Earthquake Activity

City Distance Mag. Time & Date
Minimum magnitude displayed is 2.5.

Coastal Water Temperatures

Place Temperature

Stations

Nearby Weather Stations

Station Location Temp. Windchill Dew Point Humidity Wind Precip. Elev Updated Type